This is the latest recevied weather packets stored in our database for station/object R1ZCU-14. If no packets are shown the sender has not sent any weather packets the latest 10 day(s).
| Time | Temp. | Humidity | Pressure | Rain* | Wind** | Luminosity | Snow |
|---|---|---|---|---|---|---|---|
| 1777803025 | 6.67° C | 35% | 992.7 hPa | - | - | - | - |
| 1777802425 | 6.67° C | 34% | 992.8 hPa | - | - | - | - |
| 1777801824 | 7.22° C | 33% | 992.6 hPa | - | - | - | - |
| 1777801224 | 7.78° C | 32% | 992.6 hPa | - | - | - | - |
| 1777800623 | 11.11° C | 23% | 991.8 hPa | - | - | - | - |
| 1777800023 | 13.89° C | 20% | 991.7 hPa | - | - | - | - |
| 1777799422 | 13.89° C | 21% | 992.3 hPa | - | - | - | - |
| 1777798821 | 15.56° C | 19% | 991.5 hPa | - | - | - | - |
| 1777798221 | 17.22° C | 17% | 991.4 hPa | - | - | - | - |
| 1777797621 | 16.67° C | 18% | 991.4 hPa | - | - | - | - |
| 1777797020 | 13.33° C | 20% | 991.5 hPa | - | - | - | - |
| 1777796420 | 11.11° C | 25% | 991.7 hPa | - | - | - | - |
| 1777795819 | 13.89° C | 19% | 992.2 hPa | - | - | - | - |
| 1777795219 | 15° C | 19% | 991.4 hPa | - | - | - | - |
| 1777794618 | 14.44° C | 20% | 991.3 hPa | - | - | - | - |
| 1777794018 | 15.56° C | 19% | 991.4 hPa | - | - | - | - |
| 1777793417 | 14.44° C | 20% | 991.4 hPa | - | - | - | - |
| 1777792817 | 13.33° C | 21% | 991.3 hPa | - | - | - | - |
| 1777792216 | 11.11° C | 24% | 991.3 hPa | - | - | - | - |
| 1777791616 | 12.22° C | 23% | 991.7 hPa | - | - | - | - |
| 1777791015 | 13.33° C | 23% | 991.3 hPa | - | - | - | - |
| 1777790415 | 12.22° C | 23% | 991.3 hPa | - | - | - | - |
| 1777789814 | 12.22° C | 25% | 991.3 hPa | - | - | - | - |
| 1777789214 | 11.67° C | 25% | 991.3 hPa | - | - | - | - |
| 1777788613 | 12.22° C | 23% | 991.2 hPa | - | - | - | - |
* Rain since midnight (hover to see other rain measurements)
** Current wind speed in m/s (hover to see current wind gust speed)